CheckWX is a tool to help pilots better visualize weather data.  It is not intended as a substitute for an official pre-flight weather briefing.

20:32:42 UTC

KCAO METAR
Clayton Municipal Arpk Airport
Clayton, New Mexico, USA
Current

7 mins ago

KCAO 182026Z AUTO 12005KT 2 1/2SM -SN OVC011 M11/M14 A3014 RMK AO2 P0000 T11111139
Observed
Feb-18 @ 20:26 UTC
Wind
  • 120° at 5 KTS
Visibility
2 1/2 SM
Flight Rules
IFR
Conditions
Light Snow
Cloud Levels
  • Overcast at 1,100' AGL
Temperature
-11°C / 12°F
Dewpoint
-14°C / 7°F
Humidity
79%
Altimeter
30.14" Hg
Pressure
1020.62 hPa
Current Rain
0.01"
Previous

25 mins ago

KCAO 182008Z AUTO 11006KT 3SM -SN BR OVC012 M12/M14 A3015 RMK AO2 P0000 T11171139
Observed
Feb-18 @ 20:08 UTC
Wind
  • 110° at 6 KTS
Visibility
3 SM
Flight Rules
MVFR
Conditions
Light Snow, Mist
Cloud Levels
  • Overcast at 1,200' AGL
Temperature
-12°C / 10°F
Dewpoint
-14°C / 7°F
Humidity
85%
Altimeter
30.15" Hg
Pressure
1021.02 hPa
Current Rain
0.01"
Previous

38 mins ago

KCAO 181955Z AUTO 11006KT 2SM -SN OVC013 M11/M14 A3015 RMK AO2 SLP271 P0000 T11111139
Observed
Feb-18 @ 19:55 UTC
Wind
  • 110° at 6 KTS
Visibility
2 SM
Flight Rules
IFR
Conditions
Light Snow
Cloud Levels
  • Overcast at 1,300' AGL
Temperature
-11°C / 12°F
Dewpoint
-14°C / 7°F
Humidity
79%
Altimeter
30.15" Hg
Pressure
1027.1 hPa
Current Rain
0.01"